x

8452951 - Potter Cove, Prudence Island, Ri (ptcr1) Weather Station

4:54 - Tue 7th Jul 2015 All times are EDT. -4 hours from GMT.

  • Wind
    6mph, 13mph gusts
  • Aire Temp 75°f
  • Sea Pressure 1017mb
  • 8452951 - Potter Cove, Prudence Island, Ri
  • 8452951 - Potter Cove, Prudence Island, Ri

More Historic Weather Station data

Upgrade to MSW Pro to gain access to the past 30 days of data for over 8000 Wavebouys and Weather Stations around the globe.

Join Pro

Comparision Forecast

View Surf forecast
   
mar 07/07 4:54 6 13 mph 1017mb 75f
4:48 6 10 mph 1017.1mb 75f
4:42 8 16 mph 1017.1mb 75f
4:36 7 16 mph 1017mb 75f
4:30 8 17 mph 1017mb 76f
4:24 7 14 mph 1017mb 76f
4:18 7 16 mph 1016.9mb 76f
4:12 7 17 mph 1016.9mb 76f
4:06 7 13 mph 1017mb 76f
4:00 10 20 mph 1017.1mb 76f
3:54 9 17 mph 1017.2mb 77f
3:48 8 16 mph 1017.2mb 76f
3:42 8 20 mph 1017.2mb 76f
3:36 7 13 mph 1017.3mb 77f
3:30 8 17 mph 1017.3mb 77f
3:24 9 22 mph 1017.5mb 77f
3:18 9 20 mph 1017.5mb 77f
3:12 9 17 mph 1017.6mb 77f
3:06 9 17 mph 1017.7mb 77f
3:00 9 17 mph 1017.8mb 77f
2:54 9 18 mph 1017.8mb 77f
2:48 9 18 mph 1017.8mb 76f
2:42 11 20 mph 1017.9mb 77f
2:18 11 18 mph 1018mb 76f
2:12 9 17 mph 1018.1mb 77f
2:06 6 15 mph 1018.1mb 76f
2:00 6 13 mph 1018.2mb 76f
1:54 7 17 mph 1018.2mb 78f
1:48 9 16 mph 1018.2mb 78f
1:42 8 18 mph 1018.3mb 78f
1:36 9 16 mph 1018.4mb 78f
1:30 7 16 mph 1018.5mb 78f
1:24 9 17 mph 1018.5mb 77f
1:18 7 16 mph 1018.5mb 78f
1:12 6 16 mph 1018.5mb 78f
1:06 7 15 mph 1018.5mb 78f
1:00 9 15 mph 1018.6mb 78f
12:54 8 17 mph 1018.7mb 79f
12:48 6 11 mph 1018.7mb 79f
12:36 6 13 mph 1019mb 78f
12:30 8 13 mph 1019.1mb 78f
12:24 7 15 mph 1019.1mb 77f
12:18 8 16 mph 1019.3mb 77f
12:12 6 11 mph 1019.3mb 77f
12:06 5 11 mph 1019.4mb 78f
11:54 7 15 mph 1019.5mb 78f
11:48 8 15 mph 1019.5mb 77f
11:42 7 14 mph 1019.5mb 78f
11:36 5 10 mph 1019.6mb 78f
11:30 3 8 mph 1019.7mb 78f
11:24 5 9 mph 1019.7mb 76f
11:18 6 13 mph 1019.8mb 77f
11:12 6 13 mph 1019.8mb 77f
11:06 7 13 mph 1019.8mb 76f
11:00 6 13 mph 1019.9mb 76f
10:54 6 11 mph 1019.9mb 77f
10:48 6 13 mph 1019.9mb 76f
10:42 6 9 mph 1020mb 76f
10:36 5 10 mph 1019.9mb 76f
10:24 5 10 mph 1019.9mb 77f
10:18 5 8 mph 1020mb 75f
10:12 6 9 mph 1020mb 76f
10:06 3 8 mph 1020.1mb 77f
10:00 3 7 mph 1020.1mb 76f
9:54 2 6 mph 1020mb 76f
9:48 5 7 mph 1020.1mb 75f
9:42 3 9 mph 1020.1mb 74f
9:36 3 8 mph 1020.1mb 74f
9:30 3 8 mph 1020mb 74f
9:24 3 8 mph 1020mb 74f
9:18 5 8 mph 1020mb 74f
9:12 2 5 mph 1019.9mb 73f
9:06 3 7 mph 1020mb 74f
9:00 3 7 mph 1020mb 73f
8:54 3 7 mph 1019.9mb 73f
8:48 3 7 mph 1019.9mb 74f
8:42 3 7 mph 1019.9mb 74f
8:36 3 7 mph 1019.9mb 74f
8:30 2 5 mph 1020mb 74f
8:24 2 7 mph 1020mb 73f
8:18 3 8 mph 1020mb 74f
8:12 2 5 mph 1020mb 74f
8:06 2 7 mph 1020mb 74f
8:00 3 6 mph 1020mb 73f
7:54 2 7 mph 1020.2mb 73f
7:48 3 7 mph 1020.1mb 73f
7:42 3 6 mph 1020.1mb 73f
7:36 1 3 mph 1020.1mb 73f
7:30 2 6 mph 1020.1mb 73f
7:24 1 3 mph 1020.1mb 73f
7:18 1 3 mph 1020.1mb 73f
7:12 2 5 mph 1020.1mb 72f
7:06  -  2 mph 1020.1mb 72f
7:00 1 5 mph 1020mb 72f
6:54 1 3 mph 1020.1mb 72f
6:48  -  1 mph 1020.2mb 72f
6:42  -  mph 1020.3mb 71f
6:36  -  1 mph 1020.3mb 71f
6:30  -  1 mph 1020.3mb 71f
6:24  -  mph 1020.3mb 71f
6:18  -  mph 1020.2mb 71f
6:12  -  2 mph 1020.2mb 70f
6:06  -  2 mph 1020.1mb 70f
6:00 2 3 mph 1020.2mb 70f
5:54 1 2 mph 1020.3mb 70f
5:48 1 2 mph 1020.2mb 70f
5:42  -  2 mph 1020.1mb 70f
5:36  -  1 mph 1020.1mb 70f
5:30  -  1 mph 1020.1mb 70f
5:24  -  1 mph 1020mb 70f
5:18  -  1 mph 1020mb 70f
5:12  -  2 mph 1020mb 70f
5:06 1 2 mph 1019.9mb 70f
5:00 2
mph
1019.9mb 70f
4:54 1 2 mph 1019.8mb 70f
4:48 2 3 mph 1019.8mb 70f
4:42  -  2 mph 1019.9mb 70f
4:36  -  1 mph 1019.9mb 70f
4:30 1 2 mph 1019.8mb 69f
4:24 1 2 mph 1019.9mb 69f
4:18  -  2 mph 1019.8mb 69f
4:12 1 2 mph 1019.9mb 69f
4:06  -  1 mph 1019.9mb 69f
4:00  -  1 mph 1019.9mb 69f
3:54  -  mph 1020mb 69f
3:48  -  1 mph 1020mb 69f
3:42  -  2 mph 1020mb 69f
3:36 1 2 mph 1020mb 69f
3:30  -  2 mph 1020mb 69f
3:24 1 2 mph 1020mb 69f
3:18 1 2 mph 1020mb 69f
3:12 1 3 mph 1020mb 69f
3:06 1 3 mph 1020mb 69f
3:00 2 3 mph 1020mb 69f
2:54 1 2 mph 1020.1mb 68f
2:48 2 3 mph - 68f
2:42 2 5 mph - 68f
2:36 1 3 mph - 68f
2:30 1 2 mph 1020.3mb 67f
2:24 1 2 mph 1020.4mb 67f
2:18  -  1 mph 1020.4mb 67f
2:12 1 2 mph 1020.5mb 67f
2:06  -  2 mph 1020.5mb 67f
2:00  -  2 mph 1020.4mb 67f
1:54 1 2 mph 1020.5mb 68f
1:48 1 2 mph 1020.4mb 68f
1:42  -  2 mph 1020.4mb 68f
1:36  -  2 mph 1020.4mb 68f
1:30 1 2 mph 1020.5mb 68f
1:24 2 5 mph 1020.4mb 68f
1:18 1 2 mph 1020.4mb 68f
1:12 2 3 mph 1020.4mb 68f
1:06 2 5 mph 1020.4mb 68f
1:00 1 3 mph 1020.4mb 68f
12:54 2 5 mph 1020.4mb 68f
12:48 2 3 mph 1020.5mb 68f
12:42 2
mph
1020.5mb 68f
12:36 1 2 mph 1020.5mb 68f
12:30 1 3 mph 1020.5mb 68f
12:24 1 3 mph 1020.5mb 68f
12:18 2 3 mph 1020.5mb 68f
12:12 2 6 mph 1020.5mb 68f
12:06 2 5 mph 1020.6mb 68f
12:00 2 6 mph 1020.6mb 68f
lun 07/06 11:54 2 6 mph 1020.6mb 68f
11:48 2 5 mph 1020.6mb 68f
11:42 2 3 mph 1020.6mb 68f
11:36 2 5 mph 1020.5mb 68f
11:30 2 5 mph 1020.5mb 68f
11:24 2 5 mph 1020.5mb 68f
11:18 2 6 mph 1020.5mb 68f
11:12 2 5 mph 1020.5mb 68f
11:06 2 5 mph 1020.5mb 68f
11:00 2 5 mph 1020.5mb 68f
10:54 2 5 mph 1020.5mb 69f
10:48 2 3 mph 1020.5mb 69f
10:42 2 3 mph 1020.6mb 69f
10:36 2 3 mph 1020.6mb 69f
10:30 2 5 mph 1020.7mb 69f
10:24 2 5 mph 1020.7mb 69f
10:18 1 2 mph 1020.8mb 69f
10:12 2 5 mph 1020.8mb 69f
10:06 2 6 mph 1020.8mb 69f
10:00 2 5 mph 1020.7mb 69f
9:54 2 3 mph 1020.8mb 69f
9:48 2 5 mph 1020.7mb 69f
9:42 2 5 mph 1020.7mb 70f
9:36 2 7 mph 1020.6mb 69f
9:30 2 6 mph 1020.8mb 70f
9:24 2 6 mph 1020.8mb 70f
9:18 3 6 mph 1020.8mb 70f
9:12 3 6 mph 1020.8mb 71f
9:06 3 7 mph 1020.8mb 71f
9:00 3 7 mph 1020.8mb 71f
8:54 3 8 mph 1020.8mb 71f
8:48 5 8 mph 1020.8mb 71f
8:42 5 8 mph 1020.9mb 71f
8:36 3 8 mph 1020.9mb 71f
8:30 3 8 mph 1021mb 71f
8:24 3 8 mph 1021mb 71f
8:18 3 7 mph 1021mb 72f
8:12 5 10 mph 1021.1mb 72f
8:06 3 7 mph 1021.1mb 72f
8:00 3 8 mph 1021.1mb 71f
7:54 3 7 mph 1021.1mb 71f
7:48 3 7 mph 1021mb 72f
7:42 5 9 mph 1021mb 72f
7:36 5 8 mph 1021.1mb 72f
7:30 5 7 mph 1021.1mb 72f
7:24 5 8 mph 1021.1mb 73f
7:18 5 9 mph 1021.1mb 73f
7:12 5 10 mph 1021.1mb 74f
7:06 5 10 mph 1021.1mb 74f
7:00 6 10 mph 1021.1mb 74f
6:54 6 11 mph 1021.1mb 74f
6:48 5 10 mph 1021.1mb 74f
6:42 5 9 mph 1021.1mb 73f
6:36 6 13 mph 1021.1mb 73f
6:30 7 14 mph 1021mb 73f
6:24 7 14 mph 1021mb 74f
6:18 6 13 mph 1020.9mb 74f
6:12 6 13 mph 1020.9mb 74f
6:06 5 10 mph 1020.8mb 74f
6:00 8 14 mph 1020.8mb 74f
5:54 6 11 mph 1020.8mb 75f
5:48 6 15 mph 1020.8mb 75f
5:42 6 11 mph 1020.8mb 76f
5:36 5 13 mph 1020.8mb 76f
5:30 6 11 mph 1020.9mb 76f
5:24 5 10 mph 1021mb 76f
5:18 6 10 mph 1021mb 77f
5:12 6 13 mph 1021mb 77f
5:06 5 13 mph 1021mb 77f
5:00 5 10 mph 1021mb 77f
4:54 5 9 mph 1021.1mb 78f
4:48 5 13 mph 1021.2mb 77f
4:42 5 10 mph 1021.3mb 77f
4:36 5 10 mph 1021.3mb 78f
4:30 5 9 mph 1021.3mb 77f
4:24 5 9 mph 1021.4mb 77f
4:18 3 9 mph 1021.4mb 77f
4:12 5 11 mph 1021.4mb 77f
4:06 3 8 mph 1021.3mb 78f
4:00 5 10 mph 1021.3mb 78f
3:54 6 11 mph 1021.3mb 79f
3:48 5 9 mph 1021.3mb 79f
3:42 5 11 mph 1021.4mb 79f
3:36 5 9 mph 1021.5mb 79f
3:30 6 13 mph 1021.5mb 79f
3:24 6 13 mph 1021.6mb 78f
3:18 5 13 mph 1021.7mb 78f
3:12 8 11 mph 1021.7mb 78f
3:06 8 16 mph 1021.8mb 77f
3:00 6 14 mph 1021.8mb 77f
2:54 5 13 mph 1021.8mb 77f
2:48 6 14 mph 1021.9mb 76f
2:42 6 13 mph 1021.9mb 76f
2:36 6 10 mph 1022.1mb 75f
2:30 6 11 mph 1022.2mb 75f
2:24 6 11 mph 1022.3mb 75f
2:18 7 11 mph 1022.4mb 75f
2:12 6 11 mph 1022.5mb 75f
2:06 5 10 mph 1022.4mb 75f
2:00 6 11 mph 1022.4mb 76f
1:54 7 14 mph 1022.3mb 76f
1:48 7 13 mph 1022.3mb 77f
1:42 7 14 mph 1022.3mb 78f
1:36 7 14 mph 1022.2mb 77f
1:30 7 13 mph 1022.3mb 78f
1:24 5 13 mph 1022.3mb 78f
1:18 5 13 mph 1022.3mb 77f
1:12 7 13 mph 1022.3mb 77f
1:06 5 9 mph 1022.3mb 79f
1:00 3 9 mph 1022.1mb 80f
12:54 5 11 mph 1022mb 80f
12:48 3 11 mph 1022mb 80f
12:42 3 8 mph 1022.1mb 79f
12:36 6 11 mph 1022.1mb 78f
12:30 5 9 mph 1022.3mb 80f
12:24 2 5 mph 1022.3mb 79f
12:18 3 6 mph 1022.4mb 80f
12:12 2 3 mph 1022.3mb 79f
12:06 2 6 mph 1022.4mb 79f
12:00 2 5 mph 1022.5mb 78f
11:54 2 5 mph 1022.6mb 79f
11:48  -  2 mph 1022.6mb 79f
11:42 2 3 mph 1022.6mb 78f
11:36 1 5 mph 1022.6mb 79f
11:30 3 6 mph 1022.5mb 78f
11:24 2 5 mph 1022.6mb 78f
11:18 3 5 mph 1022.5mb 78f
11:12 2 5 mph 1022.5mb 78f
11:06 3 5 mph 1022.4mb 77f
11:00 2 5 mph 1022.4mb 77f
10:54 2 5 mph 1022.3mb 77f
10:48 2 5 mph 1022.3mb 76f
10:42 2 3 mph 1022.3mb 76f
10:36 2 5 mph 1022.3mb 76f
10:30 2 3 mph 1022.3mb 75f
10:24 2 6 mph 1022.3mb 74f
10:18 3 6 mph 1022.2mb 73f
10:12 5 7 mph 1022.2mb 73f
10:06 3 6 mph 1022.2mb 73f
10:00 3 6 mph 1022.1mb 73f
9:54 5 7 mph 1022mb 73f
9:48 3 8 mph 1022mb 73f
9:42 5 8 mph 1022mb 73f
9:36 5 8 mph 1022mb 73f
9:30 3 6 mph 1022mb 72f
9:24 3 6 mph 1022mb 72f
9:18 3 7 mph 1022mb 71f
9:12 5 8 mph 1021.9mb 71f
9:06 2 6 mph 1021.9mb 71f
9:00 3 6 mph 1021.9mb 71f
8:54 3 7 mph 1021.9mb 71f
8:48 2 5 mph 1021.9mb 71f
8:42 2 5 mph 1021.9mb 71f
8:36 2 5 mph 1021.9mb 71f
8:30 2 5 mph 1021.9mb 71f
8:24 2 3 mph 1021.9mb 70f
8:18 1 3 mph 1021.9mb 70f
8:12 3 6 mph 1021.9mb 69f
8:06 2 6 mph 1022mb 69f
8:00 3 5 mph 1021.9mb 69f
7:54 3 7 mph 1021.9mb 69f
7:48 3 7 mph 1022mb 70f
7:42 5 7 mph 1021.8mb 69f
7:36 3 6 mph 1021.9mb 69f
7:30 5 7 mph 1021.8mb 68f
7:24 3 6 mph 1021.8mb 68f
7:18 1 2 mph 1021.8mb 68f
7:12 2 5 mph 1021.8mb 68f
7:06 2 3 mph 1021.8mb 67f
7:00 5 6 mph 1021.9mb 67f
6:54 3 6 mph 1021.9mb 67f
6:48 3 6 mph 1021.9mb 67f
6:42 2 5 mph 1021.9mb 67f
6:36 3 6 mph 1021.8mb 67f
6:30 3 6 mph 1021.8mb 67f
6:24 1 2 mph 1021.9mb 67f
6:18 1 2 mph 1021.9mb 66f
6:12 2 3 mph 1021.9mb 66f
6:06 2 3 mph 1021.7mb 66f
6:00 2 3 mph 1021.7mb 66f
5:54 2
mph
1021.7mb 66f
5:48 1 3 mph 1021.7mb 66f
5:42 2
mph
1021.7mb 66f
5:36 1 2 mph 1021.6mb 66f
5:30  -  1 mph 1021.6mb 66f
5:24  -  2 mph 1021.5mb 66f
5:18 1 2 mph 1021.6mb 65f
5:12 2 3 mph 1021.5mb 65f
5:06 3
mph
1021.4mb 65f
5:00 2 3 mph 1021.3mb 65f
4:54 1 2 mph 1021.3mb 65f
4:48 1 2 mph 1021.3mb 65f
4:42 1 2 mph 1021.3mb 65f
4:36 1 2 mph 1021.3mb 66f
4:30 1 2 mph 1021.3mb 66f
4:24  -  mph 1021.2mb 66f
4:18  -  1 mph 1021.2mb 66f
4:12  -  2 mph 1021.2mb 66f
4:06 3 5 mph 1021.3mb 66f
4:00 2 5 mph 1021.2mb 66f
3:54 2 5 mph 1021.2mb 66f
3:48 3 5 mph 1021.1mb 66f
3:42 3 6 mph 1021.1mb 66f
3:36 2 3 mph 1021.2mb 67f
3:30 2 3 mph 1021.3mb 67f
3:24 2 3 mph 1021.3mb 67f
3:18 1 3 mph 1021.3mb 66f
3:12 2 3 mph 1021.5mb 67f
3:06 2 3 mph 1021.4mb 67f
3:00 1 2 mph 1021.4mb 66f
2:54 2 3 mph 1021.2mb 65f
2:48 2 3 mph 1021.2mb 66f
2:42 2
mph
1021.2mb 66f
2:36  -  1 mph 1021.3mb 67f
2:30  -  2 mph 1021.3mb 67f
2:24 3 5 mph 1021.2mb 67f
2:18 3 6 mph 1021.1mb 67f
2:12 3 6 mph 1021.2mb 67f
2:06 5
mph
1021.1mb 68f
2:00 5 6 mph 1021.2mb 68f
1:54 2 3 mph 1021.3mb 68f
1:48 1 2 mph 1021.3mb 67f
1:42  -  mph 1021.2mb 67f
1:36  -  2 mph 1021.2mb 68f
1:30 3 6 mph 1021.2mb 68f
1:24 5 8 mph 1021.2mb 67f
1:18 6 7 mph 1021.3mb 68f
1:12 2 5 mph 1021.3mb 68f
1:06 3 6 mph 1021.4mb 69f
1:00 2 3 mph 1021.3mb 69f
12:54 2 3 mph 1021.4mb 68f
12:48  -  1 mph 1021.4mb 68f
12:42 2 6 mph 1021.4mb 68f
12:36 3 7 mph 1021.3mb 68f
12:30 5 7 mph 1021.3mb 69f
12:24 6 10 mph 1021.2mb 69f
12:18 7 10 mph 1021.3mb 69f
12:12 8 13 mph 1021.3mb 69f
12:06 8 11 mph 1021.3mb 69f
12:00 7 10 mph 1021.3mb 69f
dom 07/05 11:54 7 9 mph 1021.4mb 69f
11:48 8 10 mph 1021.3mb 69f
11:42 8 13 mph 1021.3mb 69f
11:36 8 14 mph 1021.3mb 69f
11:30 8 13 mph 1021.4mb 70f
11:24 8 11 mph 1021.4mb 70f
11:18 8 11 mph 1021.3mb 70f
11:12 7 11 mph 1021.3mb 70f
11:06 5 7 mph 1021.3mb 70f
11:00 3 6 mph 1021.3mb 69f
10:54 3 6 mph 1021.2mb 69f
10:48 3 6 mph 1021.1mb 69f
10:42 3 5 mph 1021mb 69f
10:36 2 5 mph 1021mb 69f
10:30 2 5 mph 1020.9mb 69f
10:24 2 3 mph 1020.9mb 69f
10:18 3 5 mph 1020.9mb 70f
10:12 2 5 mph 1020.9mb 70f
10:06 2 5 mph 1020.7mb 70f
10:00 2 3 mph 1020.7mb 70f
9:54 2 6 mph 1020.7mb 71f
9:48 2 6 mph 1020.7mb 71f
9:42 2 5 mph 1020.6mb 71f
9:36 3 7 mph 1020.6mb 72f
9:30 3 7 mph 1020.5mb 72f
9:24 5 7 mph 1020.4mb 72f
9:18 6 8 mph 1020.4mb 72f
9:12 6 8 mph 1020.2mb 72f
9:06 7 9 mph 1020.1mb 72f
9:00 6 8 mph 1020mb 72f
8:54 6 8 mph 1019.9mb 73f
8:48 6 9 mph 1019.9mb 73f
8:42 7 10 mph 1019.9mb 73f
8:36 7 11 mph 1019.9mb 73f
8:30 7 9 mph 1019.9mb 73f
8:24 7 10 mph 1019.8mb 73f
8:18 7 10 mph 1019.7mb 74f
8:12 7 9 mph 1019.7mb 74f
8:06 8 13 mph 1019.6mb 74f
8:00 7 13 mph 1019.7mb 74f
7:54 6 10 mph 1019.6mb 74f
7:48 6 10 mph 1019.6mb 74f
7:42 7 9 mph 1019.6mb 74f
7:36 7 11 mph 1019.6mb 75f
7:30 7 11 mph 1019.6mb 75f
7:24 7 11 mph 1019.6mb 75f
7:18 7 10 mph 1019.5mb 76f
7:12 8 11 mph 1019.5mb 76f
7:06 7 11 mph 1019.4mb 76f
7:00 6 9 mph 1019.4mb 76f
6:54 7 9 mph 1019.3mb 76f
6:48 7 11 mph 1019.2mb 76f
6:42 8 11 mph 1019.2mb 76f
6:36 8 13 mph 1019.2mb 77f
6:30 9 13 mph 1019.1mb 77f
6:24 8 13 mph 1019.1mb 77f
6:18 7 11 mph 1019mb 77f
6:12 9 14 mph 1018.9mb 77f
6:06 9 15 mph 1018.9mb 77f
6:00 8 11 mph 1018.9mb 77f
5:54 7 13 mph 1018.9mb 77f
5:48 9 14 mph 1018.9mb 77f
5:42 9 15 mph 1018.9mb 78f
5:36 10 16 mph 1018.9mb 77f
5:30 9 14 mph 1018.9mb 77f
5:24 9 15 mph 1018.9mb 77f
5:18 8 13 mph 1019mb 78f
5:12 8 13 mph 1019mb 78f
5:06 8 14 mph 1019mb 78f
5:00 8 14 mph 1019mb 78f
4:54 9 16 mph 1019mb 78f
4:48 7 14 mph 1019mb 78f
4:42 7 13 mph 1019mb 78f
4:36 7 13 mph 1018.9mb 77f
4:30 6 11 mph 1018.9mb 78f
4:24 7 13 mph 1018.9mb 78f
4:18 7 15 mph 1018.8mb 79f
4:12 7 11 mph 1018.7mb 78f
4:06 5 13 mph 1018.7mb 77f
4:00 3 7 mph 1018.8mb 78f
3:54 3 9 mph 1018.9mb 78f
3:48 5 10 mph 1018.9mb 77f
3:42 5 10 mph 1019mb 78f
3:36 7 13 mph 1018.9mb 78f
3:30 6 13 mph 1018.9mb 78f
3:24 7 14 mph 1018.9mb 78f
3:18 7 13 mph 1019mb 78f
3:12 6 11 mph 1019mb 78f
3:06 7 15 mph 1019mb 78f
3:00 6 11 mph 1018.9mb 78f
2:54 7 14 mph 1018.9mb 78f
2:48 7 14 mph 1019mb 78f
2:42 7 13 mph 1019.1mb 77f
2:36 6 14 mph 1019.1mb 78f
2:30 5 10 mph 1019.1mb 78f
2:24 5 10 mph 1019.2mb 79f
2:18 5 10 mph 1019.2mb 78f
2:12 5 9 mph 1019.2mb 78f
2:06 8 14 mph 1019.3mb 78f
2:00 7 13 mph 1019.2mb 78f
1:54 7 14 mph 1019.2mb 78f
1:48 8 11 mph 1019.2mb 78f
1:42 6 11 mph 1019.3mb 79f
1:36 6 9 mph 1019.3mb 78f
1:30 5 8 mph 1019.3mb 79f
1:24 3 8 mph 1019.4mb 80f
1:18 3 7 mph 1019.4mb 79f
1:12 3 7 mph 1019.4mb 80f
1:06 2 6 mph 1019.5mb 80f
1:00 3 6 mph 1019.5mb 80f
12:54 2 6 mph 1019.4mb 79f
12:48 3 7 mph 1019.4mb 78f
12:42 2 6 mph 1019.4mb 79f
12:36 3 6 mph 1019.4mb 78f
12:30 3 6 mph 1019.5mb 78f
12:24 3 6 mph 1019.4mb 79f
12:18 5 8 mph 1019.4mb 78f
12:12 1 6 mph 1019.3mb 78f
12:06 2 5 mph 1019.3mb 77f
12:00 3 6 mph 1019.3mb 78f
11:54 3 6 mph 1019.3mb 77f
11:48 3 5 mph 1019.3mb 76f
11:42 5 8 mph 1019.3mb 76f
11:36 3 7 mph 1019.3mb 78f
11:30 3 6 mph 1019.3mb 78f
11:24 1 3 mph 1019.3mb 78f
11:18 1 3 mph 1019.3mb 78f
11:12 1 5 mph 1019.3mb 78f
11:06 3 8 mph 1019.4mb 76f
11:00 2 3 mph 1019.4mb 77f
10:54 3 6 mph 1019.3mb 77f
10:48 3 6 mph 1019.3mb 76f
10:42 2 3 mph 1019.3mb 76f
10:36 3 5 mph 1019.4mb 76f
10:30 2 5 mph 1019.4mb 75f
10:24 2 6 mph 1019.4mb 75f
10:18 3 7 mph 1019.3mb 74f
10:12 5 7 mph 1019.2mb 75f
10:06 5 7 mph 1019.2mb 75f
10:00 5 7 mph 1019.2mb 75f
9:54 3 8 mph 1019.4mb 75f
9:48 6 8 mph 1019.4mb 74f
9:42 5 7 mph 1019.4mb 74f
9:36 5 7 mph 1019.4mb 74f
9:30 3 7 mph 1019.5mb 74f
9:24 3 7 mph 1019.4mb 74f
9:18 2 3 mph 1019.4mb 72f
9:12 2 5 mph 1019.4mb 72f
9:06 2 5 mph 1019.3mb 71f
9:00 5 7 mph 1019.4mb 71f
8:54 3 6 mph 1019.4mb 71f
8:48  -  3 mph 1019.3mb 71f
8:42 2 5 mph 1019.1mb 71f
8:36 2 3 mph 1019.1mb 70f
8:30 3 6 mph 1019.1mb 70f
8:24 2 6 mph 1019.1mb 70f
8:18 3 5 mph 1019mb 69f
8:12 2 5 mph 1018.9mb 69f
8:06 3 5 mph 1018.8mb 69f
8:00 3 6 mph 1018.8mb 69f
7:54 3 5 mph 1018.8mb 68f
7:48 3 5 mph 1018.8mb 68f
7:42 2 5 mph 1018.7mb 68f
7:36 3 5 mph 1018.7mb 67f
7:30 3 6 mph 1018.7mb 67f
7:24 2 5 mph 1018.5mb 66f
7:18 5 7 mph 1018.5mb 66f
7:12 3 7 mph 1018.4mb 66f
7:06 3 5 mph 1018.3mb 65f
7:00 3 7 mph 1018.3mb 65f
6:54 3 6 mph 1018.2mb 64f
6:48 5 7 mph 1018.2mb 64f
6:42 6 8 mph 1018.2mb 64f
6:36 6 8 mph 1018.1mb 63f
6:30 5 7 mph 1018mb 63f
6:24 5 7 mph 1018mb 62f
6:18 6 8 mph 1017.9mb 62f
6:12 5 7 mph 1017.8mb 62f
6:06 5 6 mph 1017.7mb 62f
6:00 5 8 mph 1017.6mb 62f
5:54 5 7 mph 1017.6mb 62f
5:48 5 8 mph 1017.5mb 62f
5:42 5 7 mph 1017.6mb 62f
5:36 5 7 mph 1017.6mb 62f
5:30 6 10 mph 1017.4mb 62f
5:24 5 7 mph 1017.4mb 62f
5:18 5 8 mph 1017.3mb 62f
5:12 5 7 mph 1017.2mb 62f
5:06 5 6 mph 1017.2mb 62f
5:00 5 6 mph 1017.2mb 62f
4:54 3 6 mph 1017.2mb 62f
4:48 3 6 mph 1017.1mb 62f
4:42 3 5 mph 1017.1mb 62f
4:36 3 6 mph 1017.1mb 62f
4:30 3 6 mph 1017.1mb 62f
4:24 3 5 mph 1017.1mb 62f
4:18 3 5 mph 1017.1mb 62f
4:12 2 5 mph 1017mb 62f
4:06 3 5 mph 1017mb 62f
4:00 3 5 mph 1017mb 62f
3:54 3 5 mph 1017.1mb 61f
3:48 5 6 mph 1017mb 61f
3:42 2 3 mph 1017mb 61f
3:36 3
mph
1016.9mb 62f
3:30 2 3 mph 1016.8mb 62f
3:24 3
mph
1016.8mb 62f
3:18 2
mph
1016.8mb 62f
3:12 2
mph
1016.8mb 62f
3:06 2 3 mph 1016.8mb 62f
3:00 1 2 mph 1016.8mb 62f
2:54 2
mph
1016.8mb 62f
2:48  -  mph - 62f
2:42  -  mph - 62f
2:36  -  mph - 62f
2:30 3 5 mph 1016.9mb 62f
2:24 3 5 mph 1016.9mb 62f
2:18 3 5 mph 1016.9mb 62f
2:12 3 5 mph 1016.9mb 63f
2:06 2 3 mph 1016.9mb 63f
2:00 2 3 mph 1017mb 63f
1:54 2 3 mph 1017mb 63f
1:48 3 5 mph 1017mb 63f
1:42 5 6 mph 1017mb 63f
1:36 3
mph
1017mb 63f
1:30 2 3 mph 1017mb 63f
1:24 2 3 mph 1016.9mb 63f
1:18 2 3 mph 1016.9mb 63f
1:12 2 3 mph 1016.7mb 63f
1:06 2 3 mph 1016.7mb 63f
1:00 2 3 mph 1016.6mb 63f
12:54 2 3 mph 1016.6mb 63f
12:48 2 3 mph 1016.6mb 63f
12:42 2 3 mph 1016.6mb 63f
12:36 2
mph
1016.6mb 62f
12:30 2
mph
1016.5mb 63f
12:24 1 2 mph 1016.5mb 63f
12:18 2 3 mph 1016.5mb 64f
12:12 1 2 mph 1016.5mb 64f
12:06  -  1 mph 1016.5mb 64f
12:00  -  1 mph 1016.4mb 64f
sáb 07/04 11:54 1 2 mph 1016.5mb 63f
11:48 1 2 mph 1016.4mb 63f
11:42 1 2 mph 1016.3mb 63f
11:36 2 3 mph 1016.4mb 63f
11:30 1 2 mph 1016.2mb 63f
11:24 2
mph
1016.2mb 63f
11:18 1 2 mph 1016.1mb 64f
11:12 2
mph
1016.2mb 64f
11:06 1 2 mph 1016.1mb 64f
11:00  -  1 mph 1016.1mb 63f
10:54 1
mph
1016mb 64f
10:48  -  1 mph 1016mb 65f
10:42  -  1 mph 1016mb 65f
10:36  -  mph 1016mb 65f
10:30  -  mph 1016mb 66f
10:24  -  1 mph 1016mb 65f
10:18  -  1 mph 1016mb 66f
10:12 1 2 mph 1016mb 66f
10:06 1 2 mph 1016mb 67f
10:00 2
mph
1015.9mb 67f
9:54 1 2 mph 1016mb 67f
9:48 1 2 mph 1016mb 67f
9:42 2
mph
1015.9mb 67f
9:36 1 2 mph 1015.8mb 67f
9:30 1 2 mph 1015.8mb 67f
9:24 1 2 mph 1015.7mb 68f
9:18  -  1 mph 1015.5mb 67f
9:12  -  1 mph 1015.4mb 67f
9:06  -  2 mph 1015.3mb 66f
9:00  -  2 mph 1015.2mb 67f
8:54  -  2 mph 1015mb 67f
8:48  -  2 mph 1014.8mb 67f
8:42  -  1 mph 1014.8mb 66f
8:36 1 2 mph 1014.6mb 66f
8:30 2 3 mph 1014.5mb 66f
8:24 1 3 mph 1014.6mb 67f
8:18 1 2 mph 1014.6mb 67f
8:12 1 2 mph 1014.6mb 67f
8:06 2 3 mph 1014.6mb 68f
8:00 2 3 mph 1014.6mb 68f
7:54 1 3 mph 1014.5mb 69f
7:48 2 5 mph 1014.5mb 69f
7:42 3 6 mph 1014.4mb 70f
7:36 5 6 mph 1014.4mb 70f
7:30 5 6 mph 1014.3mb 71f
7:24 3 6 mph 1014.3mb 71f
7:18 5 6 mph 1014.2mb 71f
7:12 5 7 mph 1014.1mb 72f
7:06 5 7 mph 1014mb 72f
7:00 6 7 mph 1014mb 72f
6:54 6 8 mph 1014mb 73f
6:48 6 8 mph 1014mb 73f
6:42 6 8 mph 1014mb 73f
6:36 5 7 mph 1014mb 73f
6:30 5 6 mph 1014.1mb 73f
6:24 3 5 mph 1014.3mb 72f
6:18 5 6 mph 1014.2mb 72f
6:12 3 6 mph 1014.2mb 72f
6:06 5 8 mph 1014.1mb 72f
6:00 5 7 mph 1013.9mb 72f
5:54 6 8 mph 1014mb 72f
5:48 3 5 mph 1014mb 73f
5:42 5 7 mph 1013.9mb 72f
5:36 5 6 mph 1014mb 72f
5:30 5 6 mph 1014mb 73f
5:24 2 3 mph 1014.1mb 73f
5:18 1 2 mph 1014mb 73f
5:12 2 3 mph 1014mb 73f
5:06 2 3 mph 1014.1mb 73f
5:00 2 3 mph 1014.2mb 73f
4:54  -  3 mph 1014.3mb 72f
4:48 3 5 mph 1014.2mb 72f
4:42  -  1 mph 1014.6mb 73f
4:36  -  1 mph 1014.8mb 73f
4:30  -  1 mph 1014.9mb 73f
4:24  -  2 mph 1014.8mb 73f
4:18  -  1 mph 1014.9mb 73f
4:12  -  1 mph 1015mb 73f
4:06  -  1 mph 1015.1mb 73f
4:00 2
mph
1015mb 73f
3:54 1 2 mph 1015mb 73f
3:48  -  2 mph 1015.1mb 73f
3:42  -  3 mph 1015.2mb 73f
3:36 2 3 mph 1015.2mb 73f
3:30 1 2 mph 1015.3mb 73f
3:24 2
mph
1015.3mb 73f
3:18  -  2 mph 1015.3mb 73f
3:12  -  2 mph 1015.4mb 73f
3:06 2 3 mph 1015.3mb 73f
3:00 2 3 mph 1015.4mb 73f
2:54 2 3 mph 1015.3mb 73f
2:48  -  1 mph 1015.4mb 74f
2:42  -  1 mph 1015.4mb 74f
2:36  -  2 mph 1015.4mb 73f
2:30 1 2 mph 1015.5mb 73f
2:24  -  1 mph 1015.4mb 73f
2:18  -  1 mph 1015.5mb 74f
2:12  -  1 mph 1015.6mb 74f
2:06 1 2 mph 1015.5mb 74f
2:00 2 3 mph 1015.5mb 73f
1:54 1 2 mph 1015.5mb 74f
1:48 1 2 mph 1015.4mb 73f
1:42  -  2 mph 1015.4mb 74f
1:36  -  1 mph 1015.4mb 74f
1:30 2 3 mph 1015.4mb 73f
1:24 2 3 mph 1015.4mb 73f
1:18  -  1 mph 1015.4mb 73f
1:12  -  3 mph 1015.4mb 73f
1:06 2 5 mph 1015.2mb 73f
1:00 2 6 mph 1015.2mb 73f
12:54 3 6 mph 1015.3mb 72f
12:48 3 7 mph 1015.3mb 72f
12:42 3 6 mph 1015.3mb 72f
12:36 3 7 mph 1015.4mb 72f
12:30 2 3 mph 1015.4mb 73f
12:24 3 6 mph 1015.5mb 72f
12:18 3 5 mph 1015.6mb 72f
12:12 3 5 mph 1015.6mb 73f
12:06 3 5 mph 1015.6mb 72f
12:00 3 6 mph 1015.6mb 72f
11:54 2 6 mph 1015.6mb 72f
11:48 3 7 mph 1015.7mb 72f
11:42 5 8 mph 1015.7mb 72f
11:36 3 6 mph 1015.7mb 72f
11:30 3 6 mph 1015.7mb 72f
11:24 3 6 mph 1015.8mb 71f
11:18 2 6 mph 1015.7mb 71f
11:12 2 6 mph 1015.8mb 71f
11:06 2 5 mph 1015.9mb 71f
11:00 1 3 mph 1015.9mb 71f
10:54 2 5 mph 1016mb 70f
10:48 1 2 mph 1016mb 70f
10:42  -  3 mph 1016mb 70f
10:36 2 3 mph 1016mb 70f
10:30 1 3 mph 1016mb 70f
10:24  -  2 mph 1016mb 70f
10:18  -  1 mph 1016mb 70f
10:12  -  2 mph 1016mb 70f
10:06  -  2 mph 1016mb 69f
10:00  -  2 mph 1015.9mb 69f
9:54 1 3 mph 1015.9mb 69f
9:48 1 5 mph 1015.8mb 69f
9:42 3 6 mph 1015.7mb 69f
9:36 3 6 mph 1015.7mb 69f
9:30  -  3 mph 1015.8mb 69f
9:24 2 3 mph 1015.8mb 68f
9:18 2 3 mph 1015.9mb 68f
9:12 2 3 mph 1016mb 68f
9:06 2 5 mph 1016mb 68f
9:00 3 5 mph 1016mb 68f
8:54 1 2 mph 1016.2mb 69f
8:48 2
mph
1016.2mb 69f
8:42 1 3 mph 1016.3mb 68f
8:36 2 3 mph 1016.3mb 68f
8:30 2 3 mph 1016.2mb 68f
8:24 2 5 mph 1016.3mb 68f
8:18 2 5 mph 1016.3mb 67f
8:12 2 5 mph 1016.3mb 67f
8:06 2 3 mph 1016.3mb 67f
8:00 2 5 mph 1016.3mb 67f
7:54 2 5 mph 1016.4mb 67f
7:48 2 3 mph 1016.4mb 67f
7:42 2 3 mph 1016.4mb 67f
7:36 1 3 mph 1016.4mb 67f
7:30 2 3 mph 1016.5mb 67f
7:24 2 3 mph 1016.3mb 67f
7:18 1 3 mph 1016.3mb 66f
7:12  -  2 mph 1016.3mb 67f
7:06 1 3 mph 1016.2mb 66f
7:00 1 2 mph 1016.2mb 66f
6:54 1 2 mph 1016.2mb 66f
6:48 1 2 mph 1016.2mb 65f
6:42 1 2 mph 1016.2mb 65f
6:36 1 2 mph 1016.2mb 65f
6:30  -  mph 1016.2mb 64f
6:24  -  1 mph 1016.3mb 64f
6:18  -  1 mph 1016.2mb 64f
6:12  -  mph 1016.3mb 64f
6:06  -  1 mph 1016.3mb 64f
6:00  -  1 mph 1016.3mb 64f
5:54  -  mph 1016.4mb 64f
5:48  -  mph 1016.5mb 64f
5:42  -  mph 1016.4mb 64f
5:36  -  mph 1016.4mb 64f
5:30  -  1 mph 1016.5mb 64f
5:24  -  mph 1016.5mb 64f
5:18  -  mph 1016.5mb 63f
5:12  -  mph 1016.5mb 63f
5:06  -  mph 1016.5mb 63f
5:00  -  mph 1016.4mb 64f
4:54  -  mph 1016.4mb 63f
4:48  -  1 mph 1016.3mb 64f
4:42  -  mph 1016.4mb 64f
4:36  -  mph 1016.4mb 64f
4:30  -  mph 1016.4mb 64f
4:24  -  mph 1016.4mb 64f
4:18  -  mph 1016.4mb 63f
4:12  -  mph 1016.4mb 63f
4:06  -  1 mph 1016.4mb 63f
4:00 1
mph
1016.5mb 64f
3:54 1 2 mph 1016.5mb 64f
3:48 2
mph
1016.5mb 64f
3:42 2
mph
1016.6mb 64f
3:36  -  2 mph 1016.6mb 64f
3:30  -  1 mph 1016.6mb 64f
3:24  -  2 mph 1016.7mb 64f
3:18 2 5 mph 1016.7mb 64f
3:12 2 3 mph 1016.6mb 63f
3:06 3 5 mph 1016.7mb 64f
3:00 1
mph
1016.7mb 64f
2:54 1 3 mph 1016.7mb 64f
2:48 2 3 mph 1016.8mb 64f
2:42 2 3 mph 1016.7mb 64f
2:36  -  2 mph 1016.7mb 64f
2:30 1 2 mph 1016.7mb 64f
2:24 1 2 mph 1016.5mb 65f
2:18  -  1 mph 1016.5mb 65f
2:12  -  1 mph 1016.5mb 65f
2:06 2 3 mph 1016.5mb 65f
2:00 2 3 mph 1016.5mb 65f
1:54 2 5 mph 1016.6mb 65f
1:48 2 5 mph 1016.7mb 65f
1:42 2 5 mph 1016.8mb 65f
1:36 3 6 mph 1016.8mb 65f
1:30 1 3 mph 1016.9mb 64f
1:24 2 5 mph 1016.8mb 65f
1:18 2 3 mph 1016.9mb 65f
1:12 2 3 mph 1016.9mb 65f
1:06 3 5 mph 1016.9mb 65f
1:00 3 7 mph 1016.8mb 65f
12:54 3 5 mph 1016.7mb 65f
12:48 3 6 mph 1016.7mb 65f
12:42 3 6 mph 1016.7mb 66f
12:36 5 8 mph 1016.8mb 66f
12:30 5 7 mph 1016.7mb 66f
12:24 5 8 mph 1016.7mb 66f
12:18 3 6 mph 1016.8mb 65f
12:12 2 6 mph 1016.8mb 65f
12:06 2 5 mph 1016.8mb 65f
12:00 2 3 mph 1016.8mb 65f
vie 07/03 11:54 3 5 mph 1016.8mb 66f
11:48 3 6 mph 1016.8mb 66f
11:42 2 6 mph 1016.8mb 66f
11:36 3 6 mph 1016.8mb 66f
11:30 3 5 mph 1016.8mb 66f
11:24 3 6 mph 1016.9mb 66f
11:18 3 7 mph 1016.8mb 66f
11:12 3 7 mph 1016.8mb 66f
11:06 3 7 mph 1016.8mb 66f
11:00 2 5 mph 1016.7mb 66f
10:54 3 6 mph 1016.6mb 66f
10:48 3 6 mph 1016.6mb 66f
10:42 2 3 mph 1016.6mb 66f
10:36 2 5 mph 1016.6mb 66f
10:30 2 5 mph 1016.4mb 66f
10:24 3 6 mph 1016.4mb 66f
10:18 3 6 mph 1016.4mb 66f
10:12 5 7 mph 1016.5mb 66f
10:06 5 8 mph 1016.4mb 67f
10:00 5 9 mph 1016.4mb 67f